Flight Track Log - Related Links

Times and Time Zones

All times are in EDT time to prevent confusion due to time zone crossing. See the EJA922 flight status page for this flight to view local times or setup timezone preferences in your user account.

Time Position Orientation Groundspeed Altitude Reporting Facility
EDT Latitude Longitude Course Direction KTS MPH feet Rate Location/Type
Thu 04:05:04 PM 41.9167 -87.8833 90° East 209 241 3,500  Level Chicago TRACON
Thu 04:06:49 PM 41.8767 -87.7356 110° East 255 293 5,000 536 Climbing Chicago Center
Thu 04:07:52 PM 41.8878 -87.6419 81° East 255 293 5,000 912 Level Chicago Center
Thu 04:08:54 PM 41.8972 -87.5433 83° East 262 302 6,900 2,371 Climbing Chicago Center
Thu 04:09:56 PM 41.9081 -87.4378 82° East 284 327 9,900 2,710 Climbing Chicago Center
Thu 04:10:00 PM 41.9333 -87.0624 90° East  Level FlightAware Approximate
Thu 04:10:58 PM 41.9183 -87.3281 83° East 297 342 12,500  Level Chicago Center
Thu 04:12:00 PM 41.9214 -87.1669 88° East 368 423 14,300 1,887 Climbing Chicago Center
Thu 04:13:02 PM 41.9064 -87.0197 98° East 396 456 16,400 1,839 Climbing Chicago Center
Thu 04:14:04 PM 41.8925 -86.8694 97° East 407 468 18,100 1,597 Climbing Chicago Center
Thu 04:15:06 PM 41.8761 -86.7164 98° East 416 479 19,700 1,548 Climbing Chicago Center
Thu 04:16:08 PM 41.8597 -86.5622 98° East 425 489 21,300 1,403 Climbing Chicago Center
Thu 04:17:10 PM 41.8400 -86.3669 98° East 440 506 22,600 816 Climbing Chicago Center
Thu 04:18:13 PM 41.8217 -86.1986 98° East 450 518 23,000 192 Climbing Chicago Center
Thu 04:19:15 PM 41.8028 -86.0211 98° East 473 544 23,000  Level Chicago Center
Thu 04:20:17 PM 41.7614 -85.8525 108° East 484 557 23,000  Level Chicago Center
Thu 04:21:19 PM 41.6594 -85.7367 140° Southeast 486 559 23,000  Level Chicago Center
Thu 04:22:21 PM 41.5547 -85.5781 131° Southeast 486 559 23,000 -48 Level Chicago Center
Thu 04:23:23 PM 41.4611 -85.4544 135° Southeast 487 560 22,900 -677 Descending Chicago Center
Thu 04:24:25 PM 41.3536 -85.3544 145° Southeast 479 551 21,600 -919 Descending Chicago Center
Thu 04:25:27 PM 41.2464 -85.2564 145° Southeast 474 545 21,000 -290 Descending Chicago Center
Thu 04:26:29 PM 41.1394 -85.1583 145° Southeast 471 542 21,000  Level Chicago Center
Thu 04:27:31 PM 41.0114 -85.0422 146° Southeast 466 536 21,000  Level Chicago Center
Thu 04:28:33 PM 40.9047 -84.9442 145° Southeast 467 537 21,000  Level Chicago Center
Thu 04:29:35 PM 40.7975 -84.8467 145° Southeast 468 539 21,000  Level Chicago Center
Thu 04:30:37 PM 40.7050 -84.7286 136° Southeast 472 543 21,000  Level Chicago Center
Thu 04:31:40 PM 40.6247 -84.5950 128° Southeast 467 537 21,000  Level Chicago Center
Thu 04:32:25 PM 40.5642 -84.4964 129° Southeast 459 528 21,000 -729 Level Indianapolis Center
Thu 04:33:27 PM 40.4667 -84.3353 128° Southeast 467 537 19,700 -1,723 Descending Indianapolis Center
Thu 04:33:59 PM 40.4214 -84.2647 130° Southeast 469 540 18,300 -2,419 Descending Indianapolis Center
Thu 04:34:29 PM 40.3850 -84.1992 126° Southeast 464 534 17,200 -1,800 Descending Indianapolis Center
Thu 04:34:59 PM 40.3500 -84.1447 130° Southeast 460 529 16,500 -2,323 Descending Indianapolis Center
Thu 04:35:31 PM 40.3061 -84.0753 130° Southeast 448 516 14,800 -2,489 Descending Indianapolis Center
Thu 04:36:33 PM 40.2022 -84.0108 155° Southeast 421 484 12,600 -1,839 Descending Indianapolis Center
Thu 04:37:35 PM 40.0936 -83.9706 164° South 409 471 11,000 -774 Descending Indianapolis Center
Thu 04:38:37 PM 39.9842 -83.9303 164° South 410 472 11,000 -480 Level Indianapolis Center
Thu 04:39:40 PM 39.8569 -83.8847 165° South 401 461 10,000 -624 Descending Indianapolis Center
Thu 04:40:42 PM 39.7625 -83.8506 164° South 364 419 9,700 -968 Descending Indianapolis Center
Thu 04:41:44 PM 39.6850 -83.8222 164° South 302 348 8,000 -1,065 Descending Indianapolis Center
Thu 04:42:46 PM 39.6100 -83.8433 192° South 294 338 7,500 -1,065 Descending Indianapolis Center
Thu 04:43:48 PM 39.5592 -83.9203 229° Southwest 285 328 5,800 -1,210 Descending Indianapolis Center
Thu 04:44:50 PM 39.4986 -84.0089 228° Southwest 279 321 5,000 -387 Descending Indianapolis Center
Thu 04:45:52 PM 39.4536 -84.0733 228° Southwest 257 296 5,000  Level Indianapolis Center
Thu 04:46:54 PM 39.4103 -84.1342 227° Southwest 237 273 5,000  Level Indianapolis Center
Thu 04:47:56 PM 39.3508 -84.1672 203° Southwest 232 267 5,000  Level Indianapolis Center
Thu 04:48:58 PM 39.2933 -84.2031 206° Southwest 231 266 5,000 -339 Level Indianapolis Center
Thu 04:50:00 PM 39.2342 -84.2400 206° Southwest 232 267 4,300 -677 Descending Indianapolis Center
Thu 04:51:02 PM 39.1694 -84.2792 205° Southwest 224 258 3,600 -629 Descending Indianapolis Center
Thu 04:52:04 PM 39.1211 -84.3086 205° Southwest 218 251 3,000 -545 Descending Indianapolis Center
Thu 04:53:47 PM 39.0333 -84.3833 213° Southwest 191 220 2,100 -479 Descending Cincinnati TRACON
Thu 04:54:47 PM 39.0500 -84.4333 293° West 147 169 1,700 -400 Descending Cincinnati TRACON
Thu 04:56:00 PM 39.1000 -84.4167 195° South  Level FlightAware Approximate

Login

Don't have an account? Register now (free) for customized features, flight alerts, and more!